Time,TemperatureF,DewpointF,PressureIn,WindDirection,WindDirectionDegrees,WindSpeedMPH,WindSpeedGustMPH,Humidity,HourlyPrecipIn,Conditions,Clouds,dailyrainin,SoftwareType,DateUTC
2013-01-15 00:00:00,22.9,16.5,30.31,WNW,283,14.0,20.0,76,0.00,,,0.00,VWS V14.01,2013-01-15 05:00:00,
2013-01-15 00:01:00,22.9,16.5,30.31,WNW,298,14.0,18.0,76,0.00,,OVC035,0.00,VWS V14.01,2013-01-15 05:01:00,
2013-01-15 00:06:00,22.9,16.5,30.31,WNW,288,7.0,13.0,76,0.00,,OVC035,0.00,VWS V14.01,2013-01-15 05:06:00,
2013-01-15 00:11:00,22.9,16.5,30.31,NW,325,7.0,12.0,76,0.00,,OVC035,0.00,VWS V14.01,2013-01-15 05:11:00,
2013-01-15 00:16:00,22.9,16.2,30.31,WNW,293,4.0,6.0,75,0.00,,OVC035,0.00,VWS V14.01,2013-01-15 05:16:00,
2013-01-15 00:21:00,22.9,15.6,30.31,West,277,4.0,11.0,73,0.00,,OVC035,0.00,VWS V14.01,2013-01-15 05:21:00,
2013-01-15 00:26:00,22.9,15.6,30.31,WNW,286,8.0,10.0,73,0.00,,OVC035,0.00,VWS V14.01,2013-01-15 05:26:00,
2013-01-15 00:31:00,22.9,14.9,30.31,WNW,291,11.0,11.0,71,0.00,,OVC035,0.00,VWS V14.01,2013-01-15 05:31:00,
2013-01-15 00:36:00,22.8,15.1,30.31,NNW,338,3.0,5.0,72,0.00,,OVC035,0.00,VWS V14.01,2013-01-15 05:36:00,
2013-01-15 00:41:00,22.7,15.4,30.31,NW,305,4.0,8.0,73,0.00,,OVC035,0.00,VWS V14.01,2013-01-15 05:41:00,
2013-01-15 00:46:00,22.7,15.4,30.31,WNW,297,3.0,9.0,73,0.00,,OVC033,0.00,VWS V14.01,2013-01-15 05:46:00,
2013-01-15 00:51:00,22.7,15.4,30.31,WNW,294,3.0,6.0,73,0.00,,OVC033,0.00,VWS V14.01,2013-01-15 05:51:00,
2013-01-15 00:56:00,22.7,15.7,30.31,WNW,289,8.0,16.0,74,0.00,,OVC033,0.00,VWS V14.01,2013-01-15 05:56:00,
2013-01-15 01:01:00,22.7,15.4,30.31,WNW,286,8.0,11.0,73,0.00,,OVC033,0.00,VWS V14.01,2013-01-15 06:01:00,
2013-01-15 01:06:00,22.6,14.9,30.31,WNW,300,8.0,9.0,72,0.00,,OVC033,0.00,VWS V14.01,2013-01-15 06:06:00,
2013-01-15 01:11:00,22.6,15.3,30.31,WNW,292,5.0,10.0,73,0.00,,OVC033,0.00,VWS V14.01,2013-01-15 06:11:00,
2013-01-15 01:16:00,22.6,14.9,30.31,West,262,8.0,8.0,72,0.00,,OVC033,0.00,VWS V14.01,2013-01-15 06:16:00,
2013-01-15 01:21:00,22.5,15.2,30.31,WNW,283,10.0,15.0,73,0.00,,OVC033,0.00,VWS V14.01,2013-01-15 06:21:00,
2013-01-15 01:26:00,22.4,15.4,30.31,WNW,294,8.0,11.0,74,0.00,,OVC033,0.00,VWS V14.01,2013-01-15 06:26:00,
2013-01-15 01:31:00,22.3,15.6,30.31,West,262,6.0,11.0,75,0.00,,OVC035,0.00,VWS V14.01,2013-01-15 06:31:00,
2013-01-15 01:36:00,22.3,15.9,30.31,WNW,288,12.0,15.0,76,0.00,,OVC035,0.00,VWS V14.01,2013-01-15 06:36:00,
2013-01-15 01:41:00,22.2,15.8,30.31,WNW,292,8.0,14.0,76,0.00,,OVC035,0.00,VWS V14.01,2013-01-15 06:41:00,
2013-01-15 01:46:00,22.2,16.1,30.31,WSW,252,7.0,9.0,77,0.00,,OVC035,0.00,VWS V14.01,2013-01-15 06:46:00,
2013-01-15 01:51:00,22.2,16.1,30.31,WSW,245,7.0,8.0,77,0.00,,OVC035,0.00,VWS V14.01,2013-01-15 06:51:00,
2013-01-15 01:56:00,22.1,15.7,30.31,West,273,4.0,14.0,76,0.00,,OVC035,0.00,VWS V14.01,2013-01-15 06:56:00,
2013-01-15 02:01:00,22.1,16.0,30.31,West,265,8.0,13.0,77,0.00,,OVC034,0.00,VWS V14.01,2013-01-15 07:01:00,
2013-01-15 02:06:00,22.0,16.2,30.31,WNW,302,7.0,7.0,78,0.00,,OVC034,0.00,VWS V14.01,2013-01-15 07:06:00,
2013-01-15 02:11:00,21.9,16.4,30.31,WNW,296,7.0,12.0,79,0.00,,OVC034,0.00,VWS V14.01,2013-01-15 07:11:00,
2013-01-15 02:16:00,21.8,16.3,30.31,NW,323,3.0,12.0,79,0.00,,OVC034,0.00,VWS V14.01,2013-01-15 07:16:00,
2013-01-15 02:21:00,21.8,16.3,30.32,WNW,302,3.0,5.0,79,0.00,,OVC034,0.00,VWS V14.01,2013-01-15 07:21:00,
2013-01-15 02:26:00,21.7,15.9,30.32,WSW,253,7.0,7.0,78,0.00,,OVC034,0.00,VWS V14.01,2013-01-15 07:26:00,
2013-01-15 02:31:00,21.6,15.5,30.32,WNW,284,7.0,18.0,77,0.00,,OVC034,0.00,VWS V14.01,2013-01-15 07:31:00,
2013-01-15 02:37:00,21.5,15.4,30.33,West,259,6.0,9.0,77,0.00,,OVC034,0.00,VWS V14.01,2013-01-15 07:37:00,
2013-01-15 02:42:00,21.3,15.5,30.33,WSW,245,11.0,12.0,78,0.00,,OVC034,0.00,VWS V14.01,2013-01-15 07:42:00,
2013-01-15 02:47:00,21.1,15.3,30.33,West,265,7.0,7.0,78,0.00,,OVC034,0.00,VWS V14.01,2013-01-15 07:47:00,
2013-01-15 02:52:00,21.0,14.9,30.33,West,269,5.0,7.0,77,0.00,,OVC034,0.00,VWS V14.01,2013-01-15 07:52:00,
2013-01-15 02:57:00,20.9,14.5,30.33,WNW,290,7.0,17.0,76,0.00,,OVC034,0.00,VWS V14.01,2013-01-15 07:57:00,
2013-01-15 03:02:00,20.7,14.6,30.33,West,265,10.0,19.0,77,0.00,,,0.00,VWS V14.01,2013-01-15 08:02:00,
2013-01-15 03:07:00,20.4,14.9,30.33,NW,313,4.0,7.0,79,0.00,,,0.00,VWS V14.01,2013-01-15 08:07:00,
2013-01-15 03:12:00,20.2,14.7,30.33,WNW,286,6.0,10.0,79,0.00,,,0.00,VWS V14.01,2013-01-15 08:12:00,
2013-01-15 03:17:00,19.9,14.2,30.34,WNW,298,7.0,14.0,78,0.00,,,0.00,VWS V14.01,2013-01-15 08:17:00,
2013-01-15 03:22:00,19.7,14.0,30.34,WNW,300,8.0,8.0,78,0.00,,,0.00,VWS V14.01,2013-01-15 08:22:00,
2013-01-15 03:27:00,19.5,13.5,30.34,WNW,290,8.0,13.0,77,0.00,,,0.00,VWS V14.01,2013-01-15 08:27:00,
2013-01-15 03:32:00,19.3,12.7,30.35,NW,308,11.0,13.0,75,0.00,,OVC034,0.00,VWS V14.01,2013-01-15 08:32:00,
2013-01-15 03:37:00,19.1,12.2,30.35,West,269,12.0,12.0,74,0.00,,OVC034,0.00,VWS V14.01,2013-01-15 08:37:00,
2013-01-15 03:42:00,18.9,11.4,30.35,NW,304,6.0,16.0,72,0.00,,OVC034,0.00,VWS V14.01,2013-01-15 08:42:00,
2013-01-15 03:47:00,18.6,10.8,30.35,West,275,8.0,8.0,71,0.00,,OVC034,0.00,VWS V14.01,2013-01-15 08:47:00,
2013-01-15 03:52:00,18.4,10.3,30.35,WSW,252,6.0,10.0,70,0.00,,OVC034,0.00,VWS V14.01,2013-01-15 08:52:00,
2013-01-15 03:57:00,18.3,10.5,30.35,WNW,296,6.0,15.0,71,0.00,,OVC034,0.00,VWS V14.01,2013-01-15 08:57:00,
2013-01-15 04:02:00,18.1,10.6,30.35,NW,315,3.0,5.0,72,0.00,,OVC035,0.00,VWS V14.01,2013-01-15 09:02:00,
2013-01-15 04:07:00,17.9,10.4,30.35,NW,323,9.0,9.0,72,0.00,,OVC035,0.00,VWS V14.01,2013-01-15 09:07:00,
2013-01-15 04:12:00,17.6,9.8,30.36,WNW,298,10.0,10.0,71,0.00,,OVC035,0.00,VWS V14.01,2013-01-15 09:12:00,
2013-01-15 04:17:00,17.3,9.5,30.35,NW,304,6.0,14.0,71,0.00,,OVC035,0.00,VWS V14.01,2013-01-15 09:17:00,
2013-01-15 04:22:00,17.0,8.9,30.35,WNW,302,3.0,11.0,70,0.00,,OVC035,0.00,VWS V14.01,2013-01-15 09:22:00,
2013-01-15 04:27:00,16.8,9.0,30.35,NW,321,4.0,13.0,71,0.00,,OVC035,0.00,VWS V14.01,2013-01-15 09:27:00,
2013-01-15 04:32:00,16.8,9.0,30.34,NW,315,8.0,12.0,71,0.00,,OVC035,0.00,VWS V14.01,2013-01-15 09:32:00,
2013-01-15 04:37:00,16.8,9.4,30.34,WNW,298,13.0,13.0,72,0.00,,OVC035,0.00,VWS V14.01,2013-01-15 09:37:00,
2013-01-15 04:42:00,16.9,9.8,30.34,WNW,292,6.0,7.0,73,0.00,,OVC035,0.00,VWS V14.01,2013-01-15 09:42:00,
2013-01-15 04:47:00,16.9,9.8,30.34,West,260,9.0,13.0,73,0.00,,OVC035,0.00,VWS V14.01,2013-01-15 09:47:00,
2013-01-15 04:52:00,16.8,9.4,30.34,NW,316,9.0,11.0,72,0.00,,OVC035,0.00,VWS V14.01,2013-01-15 09:52:00,
2013-01-15 04:57:00,16.6,9.2,30.34,NNW,347,5.0,11.0,72,0.00,,OVC035,0.00,VWS V14.01,2013-01-15 09:57:00,
2013-01-15 05:02:00,16.5,9.1,30.34,NW,325,10.0,10.0,72,0.00,,SCT028,0.00,VWS V14.01,2013-01-15 10:02:00,
2013-01-15 05:07:00,16.4,9.0,30.33,NW,321,13.0,19.0,72,0.00,,SCT028,0.00,VWS V14.01,2013-01-15 10:07:00,
2013-01-15 05:12:00,16.3,8.9,30.33,NW,320,10.0,10.0,72,0.00,,SCT028,0.00,VWS V14.01,2013-01-15 10:12:00,
2013-01-15 05:17:00,16.2,9.1,30.33,NNW,334,3.0,5.0,73,0.00,,BKN028,0.00,VWS V14.01,2013-01-15 10:17:00,
2013-01-15 05:22:00,16.1,9.0,30.33,NNW,341,4.0,4.0,73,0.00,,BKN028,0.00,VWS V14.01,2013-01-15 10:22:00,
2013-01-15 05:27:00,16.1,9.3,30.34,WNW,302,3.0,7.0,74,0.00,,BKN028,0.00,VWS V14.01,2013-01-15 10:27:00,
2013-01-15 05:32:00,16.1,9.0,30.33,WNW,284,5.0,11.0,73,0.00,,BKN028,0.00,VWS V14.01,2013-01-15 10:32:00,
2013-01-15 05:37:00,16.1,8.7,30.34,WNW,296,4.0,5.0,72,0.00,,BKN028,0.00,VWS V14.01,2013-01-15 10:37:00,
2013-01-15 05:42:00,16.1,8.7,30.34,NW,306,2.0,7.0,72,0.00,,BKN028,0.00,VWS V14.01,2013-01-15 10:42:00,
2013-01-15 05:48:00,16.1,8.4,30.34,NW,306,3.0,4.0,71,0.00,,FEW028,0.00,VWS V14.01,2013-01-15 10:48:00,
2013-01-15 05:53:00,16.2,8.5,30.34,WNW,286,5.0,6.0,71,0.00,,FEW028,0.00,VWS V14.01,2013-01-15 10:53:00,
2013-01-15 05:58:00,16.2,8.1,30.34,NW,304,5.0,7.0,70,0.00,,FEW028,0.00,VWS V14.01,2013-01-15 10:58:00,
2013-01-15 06:03:00,16.2,8.5,30.34,NW,317,3.0,3.0,71,0.00,,FEW025,0.00,VWS V14.01,2013-01-15 11:03:00,
2013-01-15 06:08:00,16.2,8.8,30.34,WNW,287,4.0,4.0,72,0.00,,FEW025,0.00,VWS V14.01,2013-01-15 11:08:00,
2013-01-15 06:13:00,16.2,9.1,30.34,WNW,288,4.0,4.0,73,0.00,,FEW025,0.00,VWS V14.01,2013-01-15 11:13:00,
2013-01-15 06:18:00,16.2,9.4,30.34,NW,321,2.0,4.0,74,0.00,,FEW025,0.00,VWS V14.01,2013-01-15 11:18:00,
2013-01-15 06:23:00,16.1,9.3,30.34,NNW,338,6.0,6.0,74,0.00,,FEW025,0.00,VWS V14.01,2013-01-15 11:23:00,
2013-01-15 06:28:00,16.1,9.3,30.34,NW,319,4.0,7.0,74,0.00,,FEW025,0.00,VWS V14.01,2013-01-15 11:28:00,
2013-01-15 06:33:00,16.2,9.7,30.34,NW,319,0.0,1.0,75,0.00,,FEW025,0.00,VWS V14.01,2013-01-15 11:33:00,
2013-01-15 06:38:00,16.2,9.7,30.34,NW,310,1.0,3.0,75,0.00,,FEW025,0.00,VWS V14.01,2013-01-15 11:38:00,
2013-01-15 06:43:00,16.2,9.7,30.35,WSW,239,1.0,3.0,75,0.00,,FEW025,0.00,VWS V14.01,2013-01-15 11:43:00,
2013-01-15 06:48:00,16.2,10.0,30.34,WSW,238,1.0,2.0,76,0.00,,FEW025,0.00,VWS V14.01,2013-01-15 11:48:00,
2013-01-15 06:53:00,16.2,10.0,30.35,WSW,238,1.0,3.0,76,0.00,,FEW025,0.00,VWS V14.01,2013-01-15 11:53:00,
2013-01-15 06:58:00,16.1,10.2,30.35,WSW,244,2.0,2.0,77,0.00,,FEW025,0.00,VWS V14.01,2013-01-15 11:58:00,
2013-01-15 07:03:00,15.9,10.0,30.35,SSW,213,3.0,3.0,77,0.00,,CLR,0.00,VWS V14.01,2013-01-15 12:03:00,
2013-01-15 07:08:00,15.8,9.9,30.35,WSW,251,1.0,2.0,77,0.00,,CLR,0.00,VWS V14.01,2013-01-15 12:08:00,
2013-01-15 07:13:00,15.7,9.8,30.34,WSW,244,2.0,3.0,77,0.00,,CLR,0.00,VWS V14.01,2013-01-15 12:13:00,
2013-01-15 07:18:00,15.6,9.7,30.35,WSW,238,2.0,2.0,77,0.00,,CLR,0.00,VWS V14.01,2013-01-15 12:18:00,
2013-01-15 07:23:00,15.5,9.6,30.35,SW,222,1.0,2.0,77,0.00,,CLR,0.00,VWS V14.01,2013-01-15 12:23:00,
2013-01-15 07:28:00,15.4,9.5,30.35,SSW,202,0.0,2.0,77,0.00,,CLR,0.00,VWS V14.01,2013-01-15 12:28:00,
2013-01-15 07:33:00,15.1,9.2,30.35,SSW,202,1.0,2.0,77,0.00,,CLR,0.00,VWS V14.01,2013-01-15 12:33:00,
2013-01-15 07:38:00,14.6,8.7,30.35,SW,217,2.0,4.0,77,0.00,,CLR,0.00,VWS V14.01,2013-01-15 12:38:00,
2013-01-15 07:43:00,14.3,8.7,30.35,SW,214,2.0,3.0,78,0.00,,CLR,0.00,VWS V14.01,2013-01-15 12:43:00,
2013-01-15 07:48:00,14.0,8.7,30.35,SSE,155,1.0,1.0,79,0.00,,CLR,0.00,VWS V14.01,2013-01-15 12:48:00,
2013-01-15 07:53:00,13.8,8.5,30.35,SW,221,2.0,3.0,79,0.00,,CLR,0.00,VWS V14.01,2013-01-15 12:53:00,
2013-01-15 07:58:00,13.5,8.2,30.36,SSE,155,1.0,3.0,79,0.00,,CLR,0.00,VWS V14.01,2013-01-15 12:58:00,
2013-01-15 08:03:00,13.3,8.0,30.35,SW,216,3.0,3.0,79,0.00,,CLR,0.00,VWS V14.01,2013-01-15 13:03:00,
2013-01-15 08:08:00,13.0,8.0,30.35,SSE,152,2.0,2.0,80,0.00,,CLR,0.00,VWS V14.01,2013-01-15 13:08:00,
2013-01-15 08:13:00,12.9,7.9,30.35,SSE,155,1.0,2.0,80,0.00,,CLR,0.00,VWS V14.01,2013-01-15 13:13:00,
2013-01-15 08:18:00,12.8,7.8,30.35,SE,129,1.0,2.0,80,0.00,,CLR,0.00,VWS V14.01,2013-01-15 13:18:00,
2013-01-15 08:23:00,12.6,7.6,30.35,SE,131,1.0,2.0,80,0.00,,CLR,0.00,VWS V14.01,2013-01-15 13:23:00,
2013-01-15 08:28:00,12.2,7.2,30.35,SE,131,2.0,2.0,80,0.00,,CLR,0.00,VWS V14.01,2013-01-15 13:28:00,
2013-01-15 08:33:00,11.4,6.4,30.35,SE,128,2.0,2.0,80,0.00,,CLR,0.00,VWS V14.01,2013-01-15 13:33:00,
2013-01-15 08:38:00,10.5,5.6,30.35,ESE,117,2.0,3.0,80,0.00,,CLR,0.00,VWS V14.01,2013-01-15 13:38:00,
2013-01-15 08:43:00,10.1,6.0,30.35,ESE,117,1.0,2.0,83,0.00,,CLR,0.00,VWS V14.01,2013-01-15 13:43:00,
2013-01-15 08:48:00,10.3,6.4,30.36,SE,134,2.0,3.0,84,0.00,,CLR,0.00,VWS V14.01,2013-01-15 13:48:00,
2013-01-15 08:53:00,11.5,7.3,30.36,SE,130,2.0,3.0,83,0.00,,CLR,0.00,VWS V14.01,2013-01-15 13:53:00,
2013-01-15 08:58:00,12.4,7.7,30.36,ESE,122,0.0,3.0,81,0.00,,CLR,0.00,VWS V14.01,2013-01-15 13:58:00,
2013-01-15 09:03:00,13.1,8.1,30.36,ESE,123,0.0,1.0,80,0.00,,CLR,0.00,VWS V14.01,2013-01-15 14:03:00,
2013-01-15 09:08:00,13.7,8.4,30.36,SE,144,1.0,2.0,79,0.00,,CLR,0.00,VWS V14.01,2013-01-15 14:08:00,
2013-01-15 09:13:00,14.0,8.4,30.36,SSW,211,2.0,3.0,78,0.00,,CLR,0.00,VWS V14.01,2013-01-15 14:13:00,
2013-01-15 09:18:00,14.5,8.6,30.36,SW,223,1.0,3.0,77,0.00,,CLR,0.00,VWS V14.01,2013-01-15 14:18:00,
2013-01-15 09:23:00,15.2,9.3,30.37,SSW,207,3.0,3.0,77,0.00,,CLR,0.00,VWS V14.01,2013-01-15 14:23:00,
2013-01-15 09:28:00,16.3,9.8,30.36,South,184,1.0,2.0,75,0.00,,CLR,0.00,VWS V14.01,2013-01-15 14:28:00,
2013-01-15 09:33:00,16.6,10.1,30.36,ESE,119,1.0,2.0,75,0.00,,CLR,0.00,VWS V14.01,2013-01-15 14:33:00,
2013-01-15 09:38:00,16.4,9.6,30.36,SW,218,1.0,2.0,74,0.00,,CLR,0.00,VWS V14.01,2013-01-15 14:38:00,
2013-01-15 09:43:00,16.6,10.1,30.36,SSE,148,0.0,2.0,75,0.00,,CLR,0.00,VWS V14.01,2013-01-15 14:43:00,
2013-01-15 09:48:00,17.0,10.2,30.36,SSW,202,1.0,1.0,74,0.00,,CLR,0.00,VWS V14.01,2013-01-15 14:48:00,
2013-01-15 09:53:00,17.5,10.6,30.36,WSW,246,2.0,2.0,74,0.00,,CLR,0.00,VWS V14.01,2013-01-15 14:53:00,
2013-01-15 09:58:00,17.9,10.7,30.36,SE,134,2.0,3.0,73,0.00,,CLR,0.00,VWS V14.01,2013-01-15 14:58:00,
2013-01-15 10:03:00,18.2,11.0,30.35,SW,219,6.0,6.0,73,0.00,,FEW028,0.00,VWS V14.01,2013-01-15 15:03:00,
2013-01-15 10:08:00,18.6,11.1,30.35,SSW,210,2.0,2.0,72,0.00,,FEW028,0.00,VWS V14.01,2013-01-15 15:08:00,
2013-01-15 10:13:00,19.3,11.8,30.35,WSW,241,2.0,3.0,72,0.00,,FEW028,0.00,VWS V14.01,2013-01-15 15:13:00,
2013-01-15 10:18:00,19.7,11.8,30.35,SSW,211,3.0,4.0,71,0.00,,FEW028,0.00,VWS V14.01,2013-01-15 15:18:00,
2013-01-15 10:23:00,20.2,12.0,30.34,WSW,238,2.0,3.0,70,0.00,,FEW028,0.00,VWS V14.01,2013-01-15 15:23:00,
2013-01-15 10:28:00,20.6,12.4,30.34,SW,219,2.0,3.0,70,0.00,,FEW028,0.00,VWS V14.01,2013-01-15 15:28:00,
2013-01-15 10:33:00,20.8,12.6,30.34,SW,218,3.0,4.0,70,0.00,,FEW028,0.00,VWS V14.01,2013-01-15 15:33:00,
2013-01-15 10:38:00,21.2,12.6,30.34,SSW,213,4.0,6.0,69,0.00,,FEW028,0.00,VWS V14.01,2013-01-15 15:38:00,
2013-01-15 10:43:00,21.7,13.1,30.34,SW,235,4.0,4.0,69,0.00,,FEW028,0.00,VWS V14.01,2013-01-15 15:43:00,
2013-01-15 10:48:00,22.0,13.1,30.33,SW,226,2.0,3.0,68,0.00,,FEW028,0.00,VWS V14.01,2013-01-15 15:48:00,
2013-01-15 10:53:00,22.2,13.3,30.33,SW,226,3.0,4.0,68,0.00,,FEW028,0.00,VWS V14.01,2013-01-15 15:53:00,
2013-01-15 10:58:00,22.4,13.4,30.33,SSW,213,1.0,2.0,68,0.00,,FEW028,0.00,VWS V14.01,2013-01-15 15:58:00,
2013-01-15 11:03:00,22.8,13.5,30.33,WSW,258,4.0,4.0,67,0.00,,FEW025,0.00,VWS V14.01,2013-01-15 16:03:00,
2013-01-15 11:08:00,23.5,13.8,30.33,West,262,4.0,9.0,66,0.00,,FEW025,0.00,VWS V14.01,2013-01-15 16:08:00,
2013-01-15 11:13:00,24.0,14.0,30.33,SW,221,5.0,9.0,65,0.00,,FEW025,0.00,VWS V14.01,2013-01-15 16:13:00,
2013-01-15 11:18:00,24.1,13.7,30.32,WSW,241,6.0,10.0,64,0.00,,FEW025,0.00,VWS V14.01,2013-01-15 16:18:00,
2013-01-15 11:23:00,24.9,14.8,30.32,West,264,6.0,8.0,65,0.00,,FEW025,0.00,VWS V14.01,2013-01-15 16:23:00,
2013-01-15 11:28:00,24.7,14.3,30.32,SW,222,7.0,9.0,64,0.00,,FEW025,0.00,VWS V14.01,2013-01-15 16:28:00,
2013-01-15 11:34:00,24.7,15.0,30.32,SW,223,4.0,5.0,66,0.00,,SCT027,0.00,VWS V14.01,2013-01-15 16:34:00,
2013-01-15 11:39:00,24.4,14.7,30.32,West,271,9.0,11.0,66,0.00,,SCT027,0.00,VWS V14.01,2013-01-15 16:39:00,
2013-01-15 11:44:00,24.4,14.7,30.31,WSW,242,4.0,6.0,66,0.00,,SCT027,0.00,VWS V14.01,2013-01-15 16:44:00,
2013-01-15 11:49:00,24.8,14.7,30.31,WSW,240,4.0,6.0,65,0.00,,BKN027,0.00,VWS V14.01,2013-01-15 16:49:00,
2013-01-15 11:54:00,24.7,14.6,30.31,WSW,255,12.0,18.0,65,0.00,,BKN027,0.00,VWS V14.01,2013-01-15 16:54:00,
2013-01-15 11:59:00,25.1,15.0,30.30,WSW,254,3.0,8.0,65,0.00,,BKN027,0.00,VWS V14.01,2013-01-15 16:59:00,
2013-01-15 12:04:00,25.8,15.3,30.30,WSW,257,7.0,8.0,64,0.00,,OVC029,0.00,VWS V14.01,2013-01-15 17:04:00,
2013-01-15 12:09:00,25.2,15.1,30.30,WSW,252,5.0,7.0,65,0.00,,OVC029,0.00,VWS V14.01,2013-01-15 17:09:00,
2013-01-15 12:14:00,25.4,15.3,30.30,WSW,243,3.0,7.0,65,0.00,,OVC029,0.00,VWS V14.01,2013-01-15 17:14:00,
2013-01-15 12:19:00,25.2,14.8,30.29,West,261,4.0,16.0,64,0.00,,OVC029,0.00,VWS V14.01,2013-01-15 17:19:00,
2013-01-15 12:24:00,24.9,14.8,30.30,SW,226,14.0,14.0,65,0.00,,OVC029,0.00,VWS V14.01,2013-01-15 17:24:00,
2013-01-15 12:29:00,25.1,15.0,30.29,West,271,7.0,10.0,65,0.00,,OVC029,0.00,VWS V14.01,2013-01-15 17:29:00,
2013-01-15 12:34:00,25.2,15.1,30.29,WNW,293,10.0,10.0,65,0.00,,SCT029,0.00,VWS V14.01,2013-01-15 17:34:00,
2013-01-15 12:39:00,25.2,15.4,30.29,West,264,3.0,8.0,66,0.00,,SCT029,0.00,VWS V14.01,2013-01-15 17:39:00,
2013-01-15 12:44:00,25.3,15.9,30.29,West,276,4.0,6.0,67,0.00,,SCT029,0.00,VWS V14.01,2013-01-15 17:44:00,
2013-01-15 12:49:00,25.6,15.8,30.28,WSW,250,6.0,8.0,66,0.00,,SCT029,0.00,VWS V14.01,2013-01-15 17:49:00,
2013-01-15 12:54:00,25.7,15.9,30.28,SSW,193,4.0,9.0,66,0.00,,SCT029,0.00,VWS V14.01,2013-01-15 17:54:00,
2013-01-15 12:59:00,25.8,16.4,30.28,West,261,6.0,11.0,67,0.00,,SCT029,0.00,VWS V14.01,2013-01-15 17:59:00,
2013-01-15 13:04:00,25.9,16.5,30.28,WSW,247,6.0,8.0,67,0.00,,SCT032,0.00,VWS V14.01,2013-01-15 18:04:00,
2013-01-15 13:09:00,25.8,16.4,30.27,West,279,7.0,13.0,67,0.00,,SCT032,0.00,VWS V14.01,2013-01-15 18:09:00,
2013-01-15 13:14:00,25.7,16.3,30.27,WSW,254,5.0,8.0,67,0.00,,SCT032,0.00,VWS V14.01,2013-01-15 18:14:00,
2013-01-15 13:19:00,25.8,16.4,30.27,SW,233,8.0,8.0,67,0.00,,SCT032,0.00,VWS V14.01,2013-01-15 18:19:00,
2013-01-15 13:24:00,25.8,16.4,30.27,West,271,9.0,17.0,67,0.00,,SCT032,0.00,VWS V14.01,2013-01-15 18:24:00,
2013-01-15 13:29:00,25.7,16.3,30.26,SW,227,5.0,7.0,67,0.00,,SCT032,0.00,VWS V14.01,2013-01-15 18:29:00,
2013-01-15 13:34:00,25.9,16.5,30.26,WSW,239,9.0,12.0,67,0.00,,SCT032,0.00,VWS V14.01,2013-01-15 18:34:00,
2013-01-15 13:39:00,25.8,16.4,30.26,WSW,246,7.0,12.0,67,0.00,,SCT032,0.00,VWS V14.01,2013-01-15 18:39:00,
2013-01-15 13:44:00,25.8,16.4,30.26,SW,229,4.0,8.0,67,0.00,,SCT032,0.00,VWS V14.01,2013-01-15 18:44:00,
2013-01-15 13:49:00,25.9,16.8,30.25,SW,235,2.0,5.0,68,0.00,,SCT032,0.00,VWS V14.01,2013-01-15 18:49:00,
2013-01-15 13:54:00,26.0,16.9,30.25,West,276,5.0,9.0,68,0.00,,SCT032,0.00,VWS V14.01,2013-01-15 18:54:00,
2013-01-15 13:59:00,25.9,17.1,30.25,SW,227,8.0,8.0,69,0.00,,SCT032,0.00,VWS V14.01,2013-01-15 18:59:00,
2013-01-15 14:04:00,26.0,17.2,30.25,WSW,242,5.0,6.0,69,0.00,,OVC044,0.00,VWS V14.01,2013-01-15 19:04:00,
2013-01-15 14:09:00,26.1,17.3,30.24,SW,223,5.0,6.0,69,0.00,,OVC044,0.00,VWS V14.01,2013-01-15 19:09:00,
2013-01-15 14:14:00,26.1,17.3,30.24,SW,235,10.0,13.0,69,0.00,,OVC044,0.00,VWS V14.01,2013-01-15 19:14:00,
2013-01-15 14:19:00,26.1,17.7,30.24,SW,220,6.0,12.0,70,0.00,,OVC044,0.00,VWS V14.01,2013-01-15 19:19:00,
2013-01-15 14:24:00,26.0,17.9,30.24,SW,226,6.0,6.0,71,0.00,,OVC044,0.00,VWS V14.01,2013-01-15 19:24:00,
2013-01-15 14:29:00,25.9,17.8,30.24,WSW,253,5.0,11.0,71,0.00,,OVC044,0.00,VWS V14.01,2013-01-15 19:29:00,
2013-01-15 14:34:00,25.9,17.8,30.24,South,190,12.0,12.0,71,0.00,,OVC044,0.00,VWS V14.01,2013-01-15 19:34:00,
2013-01-15 14:39:00,25.8,18.0,30.24,West,265,5.0,11.0,72,0.00,,OVC044,0.00,VWS V14.01,2013-01-15 19:39:00,
2013-01-15 14:44:00,25.8,18.0,30.24,WSW,248,6.0,12.0,72,0.00,,OVC044,0.00,VWS V14.01,2013-01-15 19:44:00,
2013-01-15 14:49:00,25.8,18.0,30.24,West,264,4.0,8.0,72,0.00,,OVC044,0.00,VWS V14.01,2013-01-15 19:49:00,
2013-01-15 14:54:00,25.9,18.1,30.24,WSW,242,16.0,16.0,72,0.00,,OVC044,0.00,VWS V14.01,2013-01-15 19:54:00,
2013-01-15 14:59:00,25.8,18.4,30.24,SW,219,4.0,5.0,73,0.00,,OVC044,0.00,VWS V14.01,2013-01-15 19:59:00,
2013-01-15 15:04:00,25.8,18.4,30.24,SW,225,8.0,13.0,73,0.00,,,0.00,VWS V14.01,2013-01-15 20:04:00,
2013-01-15 15:09:00,25.7,18.3,30.25,SW,233,10.0,14.0,73,0.00,,,0.00,VWS V14.01,2013-01-15 20:09:00,
2013-01-15 15:14:00,25.7,18.6,30.24,SSW,207,8.0,11.0,74,0.00,,,0.00,VWS V14.01,2013-01-15 20:14:00,
2013-01-15 15:19:00,25.7,18.6,30.24,SSW,206,8.0,11.0,74,0.00,,,0.00,VWS V14.01,2013-01-15 20:19:00,
2013-01-15 15:24:00,25.7,18.6,30.24,South,188,7.0,10.0,74,0.00,,,0.00,VWS V14.01,2013-01-15 20:24:00,
2013-01-15 15:30:00,25.7,18.6,30.24,SW,227,10.0,12.0,74,0.00,,,0.00,VWS V14.01,2013-01-15 20:30:00,
2013-01-15 15:35:00,25.6,18.8,30.24,SSW,208,4.0,7.0,75,0.00,,,0.00,VWS V14.01,2013-01-15 20:35:00,
2013-01-15 15:40:00,25.7,18.9,30.23,SSW,194,3.0,8.0,75,0.00,,,0.00,VWS V14.01,2013-01-15 20:40:00,
2013-01-15 15:45:00,25.7,18.9,30.23,SW,225,6.0,10.0,75,0.00,,,0.00,VWS V14.01,2013-01-15 20:45:00,
2013-01-15 15:50:00,25.7,18.9,30.23,SW,215,8.0,11.0,75,0.00,,,0.00,VWS V14.01,2013-01-15 20:50:00,
2013-01-15 15:55:00,25.8,18.7,30.23,SW,222,7.0,8.0,74,0.00,,,0.00,VWS V14.01,2013-01-15 20:55:00,
2013-01-15 16:00:00,26.0,18.9,30.22,SSW,208,6.0,6.0,74,0.00,,,0.00,VWS V14.01,2013-01-15 21:00:00,
2013-01-15 16:05:00,26.2,19.1,30.22,SW,227,9.0,10.0,74,0.00,,,0.00,VWS V14.01,2013-01-15 21:05:00,
2013-01-15 16:10:00,26.2,19.1,30.21,SW,234,7.0,12.0,74,0.00,,,0.00,VWS V14.01,2013-01-15 21:10:00,
2013-01-15 16:15:00,26.1,19.0,30.21,SSW,196,4.0,6.0,74,0.00,,,0.00,VWS V14.01,2013-01-15 21:15:00,
2013-01-15 16:20:00,26.0,18.9,30.21,WSW,241,4.0,7.0,74,0.00,,,0.00,VWS V14.01,2013-01-15 21:20:00,
2013-01-15 16:25:00,26.1,19.0,30.21,SW,229,4.0,8.0,74,0.00,,,0.00,VWS V14.01,2013-01-15 21:25:00,
2013-01-15 16:30:00,26.1,19.0,30.21,SW,223,8.0,8.0,74,0.00,,,0.00,VWS V14.01,2013-01-15 21:30:00,
2013-01-15 16:35:00,26.1,19.0,30.21,SW,234,3.0,4.0,74,0.00,,,0.00,VWS V14.01,2013-01-15 21:35:00,
2013-01-15 16:40:00,26.3,18.8,30.21,SSW,207,6.0,6.0,73,0.00,,,0.00,VWS V14.01,2013-01-15 21:40:00,
2013-01-15 16:45:00,26.3,18.8,30.20,WSW,244,3.0,5.0,73,0.00,,,0.00,VWS V14.01,2013-01-15 21:45:00,
2013-01-15 16:50:00,26.5,18.7,30.20,SW,229,10.0,11.0,72,0.00,,,0.00,VWS V14.01,2013-01-15 21:50:00,
2013-01-15 16:55:00,26.7,18.6,30.20,SW,226,4.0,7.0,71,0.00,,,0.00,VWS V14.01,2013-01-15 21:55:00,
2013-01-15 17:00:00,26.9,18.8,30.20,SW,215,6.0,8.0,71,0.00,,,0.00,VWS V14.01,2013-01-15 22:00:00,
2013-01-15 17:05:00,26.9,18.8,30.19,SW,227,3.0,8.0,71,0.00,,,0.00,VWS V14.01,2013-01-15 22:05:00,
2013-01-15 17:10:00,27.0,18.9,30.19,SSW,197,8.0,14.0,71,0.00,,,0.00,VWS V14.01,2013-01-15 22:10:00,
2013-01-15 17:15:00,27.1,19.0,30.19,West,274,8.0,11.0,71,0.00,,,0.00,VWS V14.01,2013-01-15 22:15:00,
2013-01-15 17:20:00,27.0,19.5,30.19,WSW,238,7.0,11.0,73,0.00,,,0.00,VWS V14.01,2013-01-15 22:20:00,
2013-01-15 17:25:00,26.9,19.4,30.19,WSW,257,7.0,11.0,73,0.00,,,0.00,VWS V14.01,2013-01-15 22:25:00,
2013-01-15 17:30:00,27.0,19.5,30.19,SW,227,7.0,16.0,73,0.00,,,0.00,VWS V14.01,2013-01-15 22:30:00,
2013-01-15 17:35:00,27.0,19.8,30.18,WSW,250,8.0,8.0,74,0.00,,,0.00,VWS V14.01,2013-01-15 22:35:00,
2013-01-15 17:40:00,26.9,19.7,30.18,SW,229,9.0,15.0,74,0.00,,,0.00,VWS V14.01,2013-01-15 22:40:00,
2013-01-15 17:45:00,27.0,19.5,30.17,SSW,211,9.0,11.0,73,0.00,,,0.00,VWS V14.01,2013-01-15 22:45:00,
2013-01-15 17:50:00,27.1,19.6,30.18,WSW,239,4.0,6.0,73,0.00,,,0.00,VWS V14.01,2013-01-15 22:50:00,
2013-01-15 17:55:00,27.1,19.9,30.17,WSW,250,5.0,7.0,74,0.00,,,0.00,VWS V14.01,2013-01-15 22:55:00,
2013-01-15 18:00:00,27.0,19.8,30.18,WSW,237,8.0,9.0,74,0.00,,,0.00,VWS V14.01,2013-01-15 23:00:00,
2013-01-15 18:05:00,27.1,19.9,30.17,SW,229,7.0,7.0,74,0.00,,,0.00,VWS V14.01,2013-01-15 23:05:00,
2013-01-15 18:10:00,27.2,19.7,30.17,SW,228,6.0,9.0,73,0.00,,,0.00,VWS V14.01,2013-01-15 23:10:00,
2013-01-15 18:15:00,27.1,19.6,30.17,SW,223,9.0,11.0,73,0.00,,,0.00,VWS V14.01,2013-01-15 23:15:00,
2013-01-15 18:20:00,27.2,19.7,30.17,SW,216,10.0,11.0,73,0.00,,,0.00,VWS V14.01,2013-01-15 23:20:00,
2013-01-15 18:25:00,27.3,19.8,30.17,WSW,245,8.0,9.0,73,0.00,,,0.00,VWS V14.01,2013-01-15 23:25:00,
2013-01-15 18:30:00,27.3,19.8,30.17,SW,219,8.0,13.0,73,0.00,,,0.00,VWS V14.01,2013-01-15 23:30:00,
2013-01-15 18:35:00,27.4,19.6,30.17,West,269,4.0,11.0,72,0.00,,,0.00,VWS V14.01,2013-01-15 23:35:00,
2013-01-15 18:40:00,27.5,19.7,30.17,SW,226,8.0,8.0,72,0.00,,,0.00,VWS V14.01,2013-01-15 23:40:00,
2013-01-15 18:45:00,27.5,19.7,30.17,WSW,242,7.0,7.0,72,0.00,,,0.00,VWS V14.01,2013-01-15 23:45:00,
2013-01-15 18:50:00,27.5,19.7,30.16,WSW,245,5.0,8.0,72,0.00,,,0.00,VWS V14.01,2013-01-15 23:50:00,
2013-01-15 18:55:00,27.5,19.4,30.16,SW,217,5.0,9.0,71,0.00,,,0.00,VWS V14.01,2013-01-15 23:55:00,
2013-01-15 19:00:00,27.5,19.7,30.16,WSW,252,7.0,14.0,72,0.00,,,0.00,VWS V14.01,2013-01-16 00:00:00,
2013-01-15 19:05:00,27.6,19.8,30.16,SW,228,9.0,10.0,72,0.00,,OVC055,0.00,VWS V14.01,2013-01-16 00:05:00,
2013-01-15 19:10:00,27.4,19.6,30.16,SW,220,7.0,7.0,72,0.00,,OVC055,0.00,VWS V14.01,2013-01-16 00:10:00,
2013-01-15 19:16:00,27.2,19.7,30.15,WSW,248,6.0,7.0,73,0.00,,OVC055,0.00,VWS V14.01,2013-01-16 00:16:00,
2013-01-15 19:21:00,26.9,19.4,30.15,SW,227,6.0,8.0,73,0.00,,OVC055,0.00,VWS V14.01,2013-01-16 00:21:00,
2013-01-15 19:26:00,26.8,19.3,30.15,SSW,209,4.0,4.0,73,0.00,,OVC055,0.00,VWS V14.01,2013-01-16 00:26:00,
2013-01-15 19:31:00,26.7,19.5,30.15,SW,223,4.0,7.0,74,0.00,,OVC055,0.00,VWS V14.01,2013-01-16 00:31:00,
2013-01-15 19:36:00,26.6,19.8,30.15,SW,215,6.0,6.0,75,0.00,,OVC055,0.00,VWS V14.01,2013-01-16 00:36:00,
2013-01-15 19:41:00,26.5,19.7,30.15,SSW,213,5.0,6.0,75,0.00,,OVC055,0.00,VWS V14.01,2013-01-16 00:41:00,
2013-01-15 19:46:00,26.4,19.9,30.15,SSW,200,5.0,7.0,76,0.00,,OVC055,0.00,VWS V14.01,2013-01-16 00:46:00,
2013-01-15 19:51:00,26.3,20.1,30.15,WSW,254,6.0,6.0,77,0.00,,OVC055,0.00,VWS V14.01,2013-01-16 00:51:00,
2013-01-15 19:56:00,26.4,20.2,30.15,SW,225,4.0,7.0,77,0.00,,OVC055,0.00,VWS V14.01,2013-01-16 00:56:00,
2013-01-15 20:01:00,26.3,20.1,30.14,SW,225,6.0,11.0,77,0.00,,OVC055,0.00,VWS V14.01,2013-01-16 01:01:00,
2013-01-15 20:06:00,26.3,20.1,30.14,SSW,207,7.0,7.0,77,0.00,,OVC055,0.00,VWS V14.01,2013-01-16 01:06:00,
2013-01-15 20:11:00,26.3,20.4,30.14,WSW,257,7.0,8.0,78,0.00,,OVC055,0.00,VWS V14.01,2013-01-16 01:11:00,
2013-01-15 20:16:00,26.2,20.3,30.14,SW,231,5.0,6.0,78,0.00,,OVC055,0.00,VWS V14.01,2013-01-16 01:16:00,
2013-01-15 20:21:00,26.2,20.6,30.14,SW,231,6.0,8.0,79,0.00,,OVC055,0.00,VWS V14.01,2013-01-16 01:21:00,
2013-01-15 20:26:00,26.1,20.5,30.13,SW,232,9.0,10.0,79,0.00,,OVC055,0.00,VWS V14.01,2013-01-16 01:26:00,
2013-01-15 20:31:00,26.1,20.5,30.13,WSW,246,3.0,8.0,79,0.00,,OVC055,0.00,VWS V14.01,2013-01-16 01:31:00,
2013-01-15 20:36:00,26.2,20.6,30.13,WSW,248,7.0,9.0,79,0.00,,OVC055,0.00,VWS V14.01,2013-01-16 01:36:00,
2013-01-15 20:41:00,26.2,20.9,30.12,WSW,238,5.0,12.0,80,0.00,,OVC055,0.00,VWS V14.01,2013-01-16 01:41:00,
2013-01-15 20:46:00,26.3,20.7,30.12,SW,219,6.0,8.0,79,0.00,,OVC055,0.00,VWS V14.01,2013-01-16 01:46:00,
2013-01-15 20:51:00,26.4,20.8,30.11,WSW,252,11.0,20.0,79,0.00,,OVC055,0.00,VWS V14.01,2013-01-16 01:51:00,
2013-01-15 20:56:00,26.4,21.1,30.11,SSW,194,7.0,14.0,80,0.00,,OVC055,0.00,VWS V14.01,2013-01-16 01:56:00,
2013-01-15 21:01:00,26.5,20.9,30.11,WSW,256,6.0,10.0,79,0.00,,OVC055,0.00,VWS V14.01,2013-01-16 02:01:00,
2013-01-15 21:06:00,26.6,21.0,30.11,WSW,247,8.0,9.0,79,0.00,,OVC050,0.00,VWS V14.01,2013-01-16 02:06:00,
2013-01-15 21:11:00,26.7,21.1,30.11,SW,215,11.0,12.0,79,0.00,,OVC050,0.00,VWS V14.01,2013-01-16 02:11:00,
2013-01-15 21:16:00,26.8,21.2,30.10,WSW,242,5.0,10.0,79,0.00,,OVC050,0.00,VWS V14.01,2013-01-16 02:16:00,
2013-01-15 21:21:00,26.7,21.1,30.10,WSW,245,8.0,11.0,79,0.00,,OVC050,0.00,VWS V14.01,2013-01-16 02:21:00,
2013-01-15 21:26:00,26.7,21.1,30.10,WSW,246,4.0,7.0,79,0.00,,OVC050,0.00,VWS V14.01,2013-01-16 02:26:00,
2013-01-15 21:31:00,26.7,21.1,30.10,SW,226,7.0,12.0,79,0.00,,OVC050,0.00,VWS V14.01,2013-01-16 02:31:00,
2013-01-15 21:36:00,26.8,21.2,30.09,WSW,257,12.0,12.0,79,0.00,,OVC050,0.00,VWS V14.01,2013-01-16 02:36:00,
2013-01-15 21:41:00,26.8,21.2,30.09,SW,218,9.0,12.0,79,0.00,,OVC050,0.00,VWS V14.01,2013-01-16 02:41:00,
2013-01-15 21:46:00,26.8,21.2,30.10,SW,234,3.0,12.0,79,0.00,,OVC050,0.00,VWS V14.01,2013-01-16 02:46:00,
2013-01-15 21:51:00,26.8,21.2,30.09,SW,230,7.0,12.0,79,0.00,,OVC050,0.00,VWS V14.01,2013-01-16 02:51:00,
2013-01-15 21:56:00,26.9,21.3,30.09,SW,235,5.0,7.0,79,0.00,,OVC050,0.00,VWS V14.01,2013-01-16 02:56:00,
2013-01-15 22:01:00,26.9,21.3,30.09,SW,236,6.0,10.0,79,0.00,,OVC050,0.00,VWS V14.01,2013-01-16 03:01:00,
2013-01-15 22:06:00,26.9,21.3,30.08,WSW,238,5.0,11.0,79,0.00,,OVC050,0.00,VWS V14.01,2013-01-16 03:06:00,
2013-01-15 22:11:00,26.9,21.3,30.08,SW,219,4.0,7.0,79,0.00,,OVC050,0.00,VWS V14.01,2013-01-16 03:11:00,
2013-01-15 22:16:00,26.9,21.3,30.08,SW,219,6.0,11.0,79,0.00,,OVC050,0.00,VWS V14.01,2013-01-16 03:16:00,
2013-01-15 22:21:00,26.8,21.5,30.08,SSW,199,6.0,10.0,80,0.00,,OVC050,0.00,VWS V14.01,2013-01-16 03:21:00,
2013-01-15 22:26:00,26.7,21.4,30.08,SW,218,5.0,8.0,80,0.00,,OVC050,0.00,VWS V14.01,2013-01-16 03:26:00,
2013-01-15 22:31:00,26.7,21.4,30.08,SSW,200,8.0,9.0,80,0.00,,OVC050,0.00,VWS V14.01,2013-01-16 03:31:00,
2013-01-15 22:36:00,26.7,21.4,30.07,SSW,204,5.0,9.0,80,0.00,,OVC050,0.00,VWS V14.01,2013-01-16 03:36:00,
2013-01-15 22:41:00,26.7,21.4,30.07,SSW,210,8.0,8.0,80,0.00,,OVC050,0.00,VWS V14.01,2013-01-16 03:41:00,
2013-01-15 22:47:00,26.7,21.4,30.07,SSW,213,6.0,9.0,80,0.00,,OVC050,0.00,VWS V14.01,2013-01-16 03:47:00,
2013-01-15 22:52:00,26.7,21.4,30.06,West,260,7.0,8.0,80,0.00,,OVC050,0.00,VWS V14.01,2013-01-16 03:52:00,
2013-01-15 22:57:00,26.7,21.4,30.06,SSW,207,7.0,9.0,80,0.00,,OVC050,0.00,VWS V14.01,2013-01-16 03:57:00,
2013-01-15 23:02:00,26.8,21.5,30.06,SW,230,4.0,7.0,80,0.00,,OVC048,0.00,VWS V14.01,2013-01-16 04:02:00,
2013-01-15 23:07:00,26.9,21.6,30.06,SSW,206,9.0,11.0,80,0.00,,OVC048,0.00,VWS V14.01,2013-01-16 04:07:00,
2013-01-15 23:12:00,26.9,21.6,30.05,SSW,212,6.0,8.0,80,0.00,,OVC048,0.00,VWS V14.01,2013-01-16 04:12:00,
2013-01-15 23:17:00,26.9,21.6,30.05,WSW,256,8.0,11.0,80,0.00,,OVC048,0.00,VWS V14.01,2013-01-16 04:17:00,
2013-01-15 23:22:00,26.9,21.9,30.05,WSW,238,7.0,11.0,81,0.00,,OVC048,0.00,VWS V14.01,2013-01-16 04:22:00,
2013-01-15 23:27:00,26.9,21.9,30.05,SW,232,8.0,9.0,81,0.00,,OVC048,0.00,VWS V14.01,2013-01-16 04:27:00,
2013-01-15 23:32:00,27.0,22.0,30.05,SW,230,5.0,8.0,81,0.00,,OVC048,0.00,VWS V14.01,2013-01-16 04:32:00,
2013-01-15 23:37:00,27.1,21.8,30.04,SW,231,7.0,8.0,80,0.00,,OVC048,0.00,VWS V14.01,2013-01-16 04:37:00,
2013-01-15 23:42:00,27.2,21.9,30.04,SSW,213,10.0,10.0,80,0.00,,OVC048,0.00,VWS V14.01,2013-01-16 04:42:00,
2013-01-15 23:47:00,27.2,21.9,30.04,WSW,245,7.0,7.0,80,0.00,,OVC048,0.00,VWS V14.01,2013-01-16 04:47:00,
2013-01-15 23:52:00,27.2,21.9,30.04,West,263,4.0,9.0,80,0.00,,OVC048,0.00,VWS V14.01,2013-01-16 04:52:00,
2013-01-15 23:57:00,27.2,21.9,30.03,SW,228,11.0,11.0,80,0.00,,OVC048,0.00,VWS V14.01,2013-01-16 04:57:00,